sensor_id;sensor_type;location;lat;lon;timestamp;pressure;altitude;pressure_sealevel;temperature;humidity
54236;BME280;40151;43.606;1.472;2023-04-26T00:00:14;99407.59;;;18.51;56.25
54236;BME280;40151;43.606;1.472;2023-04-26T00:02:40;99410.16;;;18.52;56.40
54236;BME280;40151;43.606;1.472;2023-04-26T00:05:06;99401.44;;;18.50;56.66
54236;BME280;40151;43.606;1.472;2023-04-26T00:07:32;99410.28;;;18.49;56.30
54236;BME280;40151;43.606;1.472;2023-04-26T00:09:58;99409.34;;;18.50;56.41
54236;BME280;40151;43.606;1.472;2023-04-26T00:12:24;99412.00;;;18.50;56.46
54236;BME280;40151;43.606;1.472;2023-04-26T00:14:49;99404.25;;;18.47;56.53
54236;BME280;40151;43.606;1.472;2023-04-26T00:17:15;99407.78;;;18.46;56.34
54236;BME280;40151;43.606;1.472;2023-04-26T00:19:40;99410.44;;;18.46;56.41
54236;BME280;40151;43.606;1.472;2023-04-26T00:22:06;99410.44;;;18.46;56.37
54236;BME280;40151;43.606;1.472;2023-04-26T00:24:33;99410.44;;;18.46;56.23
54236;BME280;40151;43.606;1.472;2023-04-26T00:26:58;99407.91;;;18.45;56.58
54236;BME280;40151;43.606;1.472;2023-04-26T00:29:24;99415.91;;;18.43;56.49
54236;BME280;40151;43.606;1.472;2023-04-26T00:31:50;99401.75;;;18.44;56.50
54236;BME280;40151;43.606;1.472;2023-04-26T00:34:15;99405.25;;;18.45;56.14
54236;BME280;40151;43.606;1.472;2023-04-26T00:36:41;99405.25;;;18.45;56.40
54236;BME280;40151;43.606;1.472;2023-04-26T00:39:07;99405.31;;;18.43;56.48
54236;BME280;40151;43.606;1.472;2023-04-26T00:41:33;99398.34;;;18.42;56.19
54236;BME280;40151;43.606;1.472;2023-04-26T00:43:59;99407.03;;;18.44;56.50
54236;BME280;40151;43.606;1.472;2023-04-26T00:46:25;99394.00;;;18.41;56.24
54236;BME280;40151;43.606;1.472;2023-04-26T00:48:53;99392.25;;;18.40;56.37
54236;BME280;40151;43.606;1.472;2023-04-26T00:51:19;99394.06;;;18.40;56.65
54236;BME280;40151;43.606;1.472;2023-04-26T00:53:44;99398.47;;;18.39;56.35
54236;BME280;40151;43.606;1.472;2023-04-26T00:56:11;99396.63;;;18.41;56.62
54236;BME280;40151;43.606;1.472;2023-04-26T00:58:37;99389.63;;;18.40;56.60
54236;BME280;40151;43.606;1.472;2023-04-26T01:01:03;99392.38;;;18.38;56.57
54236;BME280;40151;43.606;1.472;2023-04-26T01:03:28;99390.81;;;18.34;56.44
54236;BME280;40151;43.606;1.472;2023-04-26T01:05:54;99391.50;;;18.38;56.32
54236;BME280;40151;43.606;1.472;2023-04-26T01:08:20;99387.91;;;18.39;56.42
54236;BME280;40151;43.606;1.472;2023-04-26T01:10:47;99375.72;;;18.36;56.56
54236;BME280;40151;43.606;1.472;2023-04-26T01:13:13;99384.44;;;18.38;56.58
54236;BME280;40151;43.606;1.472;2023-04-26T01:15:44;99385.34;;;18.37;56.57
54236;BME280;40151;43.606;1.472;2023-04-26T01:18:10;99382.81;;;18.36;56.29
54236;BME280;40151;43.606;1.472;2023-04-26T01:20:36;99381.09;;;18.35;56.32
54236;BME280;40151;43.606;1.472;2023-04-26T01:23:02;99374.09;;;18.34;56.56
54236;BME280;40151;43.606;1.472;2023-04-26T01:25:28;99366.16;;;18.34;56.42
54236;BME280;40151;43.606;1.472;2023-04-26T01:27:53;99378.47;;;18.35;56.49
54236;BME280;40151;43.606;1.472;2023-04-26T01:30:19;99367.09;;;18.33;56.64
54236;BME280;40151;43.606;1.472;2023-04-26T01:32:44;99372.56;;;18.30;56.63
54236;BME280;40151;43.606;1.472;2023-04-26T01:35:10;99376.81;;;18.32;56.52
54236;BME280;40151;43.606;1.472;2023-04-26T01:37:35;99379.53;;;18.31;56.72
54236;BME280;40151;43.606;1.472;2023-04-26T01:40:00;99369.03;;;18.29;56.68
54236;BME280;40151;43.606;1.472;2023-04-26T01:42:26;99363.69;;;18.31;56.38
54236;BME280;40151;43.606;1.472;2023-04-26T01:44:51;99353.97;;;18.31;56.52
54236;BME280;40151;43.606;1.472;2023-04-26T01:47:17;99349.63;;;18.30;56.62
54236;BME280;40151;43.606;1.472;2023-04-26T01:49:42;99347.84;;;18.31;56.44
54236;BME280;40151;43.606;1.472;2023-04-26T01:52:07;99352.31;;;18.29;56.70
54236;BME280;40151;43.606;1.472;2023-04-26T01:54:33;99355.06;;;18.27;56.70
54236;BME280;40151;43.606;1.472;2023-04-26T01:56:58;99347.97;;;18.28;56.48
54236;BME280;40151;43.606;1.472;2023-04-26T01:59:24;99351.56;;;18.27;56.59
54236;BME280;40151;43.606;1.472;2023-04-26T02:01:49;99349.69;;;18.29;56.43
54236;BME280;40151;43.606;1.472;2023-04-26T02:04:15;99341.00;;;18.27;56.69
54236;BME280;40151;43.606;1.472;2023-04-26T02:06:40;99335.72;;;18.27;56.34
54236;BME280;40151;43.606;1.472;2023-04-26T02:09:06;99339.28;;;18.25;56.52
54236;BME280;40151;43.606;1.472;2023-04-26T02:11:33;99341.94;;;18.25;56.41
54236;BME280;40151;43.606;1.472;2023-04-26T02:13:59;99336.72;;;18.24;56.46
54236;BME280;40151;43.606;1.472;2023-04-26T02:16:24;99348.91;;;18.27;56.37
54236;BME280;40151;43.606;1.472;2023-04-26T02:18:51;99342.88;;;18.24;56.37
54236;BME280;40151;43.606;1.472;2023-04-26T02:21:17;99340.16;;;18.26;56.27
54236;BME280;40151;43.606;1.472;2023-04-26T02:23:43;99334.88;;;18.26;56.56
54236;BME280;40151;43.606;1.472;2023-04-26T02:26:08;99337.59;;;18.24;56.61
54236;BME280;40151;43.606;1.472;2023-04-26T02:28:35;99334.94;;;18.24;56.47
54236;BME280;40151;43.606;1.472;2023-04-26T02:31:01;99338.53;;;18.23;56.54
54236;BME280;40151;43.606;1.472;2023-04-26T02:33:27;99332.25;;;18.26;56.29
54236;BME280;40151;43.606;1.472;2023-04-26T02:35:52;99330.59;;;18.23;56.44
54236;BME280;40151;43.606;1.472;2023-04-26T02:38:18;99337.53;;;18.26;56.43
54236;BME280;40151;43.606;1.472;2023-04-26T02:40:43;99337.59;;;18.24;56.33
54236;BME280;40151;43.606;1.472;2023-04-26T02:43:09;99343.72;;;18.25;56.36
54236;BME280;40151;43.606;1.472;2023-04-26T02:45:42;99335.88;;;18.23;56.21
54236;BME280;40151;43.606;1.472;2023-04-26T02:48:08;99334.16;;;18.22;56.21
54236;BME280;40151;43.606;1.472;2023-04-26T02:50:33;99335.09;;;18.21;56.60
54236;BME280;40151;43.606;1.472;2023-04-26T02:52:59;99335.16;;;18.20;56.66
54236;BME280;40151;43.606;1.472;2023-04-26T02:55:24;99328.88;;;18.22;56.23
54236;BME280;40151;43.606;1.472;2023-04-26T02:57:50;99329.75;;;18.23;56.57
54236;BME280;40151;43.606;1.472;2023-04-26T03:00:15;99322.75;;;18.22;56.32
54236;BME280;40151;43.606;1.472;2023-04-26T03:02:41;99316.78;;;18.18;56.43
54236;BME280;40151;43.606;1.472;2023-04-26T03:05:07;99316.59;;;18.21;56.27
54236;BME280;40151;43.606;1.472;2023-04-26T03:07:33;99317.47;;;18.22;56.54
54236;BME280;40151;43.606;1.472;2023-04-26T03:09:59;99312.25;;;18.20;56.32
54236;BME280;40151;43.606;1.472;2023-04-26T03:12:24;99307.75;;;18.22;56.19
54236;BME280;40151;43.606;1.472;2023-04-26T03:14:50;99312.34;;;18.19;56.23
54236;BME280;40151;43.606;1.472;2023-04-26T03:17:15;99320.19;;;18.20;56.15
54236;BME280;40151;43.606;1.472;2023-04-26T03:19:41;99316.69;;;18.20;56.25
54236;BME280;40151;43.606;1.472;2023-04-26T03:22:06;99314.91;;;18.20;56.31
54236;BME280;40151;43.606;1.472;2023-04-26T03:24:31;99315.09;;;18.17;56.35
54236;BME280;40151;43.606;1.472;2023-04-26T03:26:57;99321.13;;;18.19;56.26
54236;BME280;40151;43.606;1.472;2023-04-26T03:29:22;99318.47;;;18.19;56.30
54236;BME280;40151;43.606;1.472;2023-04-26T03:31:48;99321.19;;;18.18;56.15
54236;BME280;40151;43.606;1.472;2023-04-26T03:34:13;99306.22;;;18.18;56.49
54236;BME280;40151;43.606;1.472;2023-04-26T03:36:38;99311.50;;;18.18;56.23
54236;BME280;40151;43.606;1.472;2023-04-26T03:39:04;99302.78;;;18.16;56.51
54236;BME280;40151;43.606;1.472;2023-04-26T03:41:32;99306.22;;;18.18;56.30
54236;BME280;40151;43.606;1.472;2023-04-26T03:43:59;99301.78;;;18.19;56.41
54236;BME280;40151;43.606;1.472;2023-04-26T03:46:25;99303.72;;;18.15;56.56
54236;BME280;40151;43.606;1.472;2023-04-26T03:48:50;99313.34;;;18.16;56.25
54236;BME280;40151;43.606;1.472;2023-04-26T03:51:15;99306.28;;;18.17;56.23
54236;BME280;40151;43.606;1.472;2023-04-26T03:53:41;99312.50;;;18.16;56.38
54236;BME280;40151;43.606;1.472;2023-04-26T03:56:06;99310.81;;;18.15;56.54
54236;BME280;40151;43.606;1.472;2023-04-26T03:58:32;99309.94;;;18.14;56.36
54236;BME280;40151;43.606;1.472;2023-04-26T04:00:58;99309.94;;;18.14;56.27
54236;BME280;40151;43.606;1.472;2023-04-26T04:03:23;99308.06;;;18.16;56.45
54236;BME280;40151;43.606;1.472;2023-04-26T04:05:48;99305.66;;;18.11;56.27
54236;BME280;40151;43.606;1.472;2023-04-26T04:08:14;99309.94;;;18.14;56.44
54236;BME280;40151;43.606;1.472;2023-04-26T04:10:40;99310.09;;;18.11;56.11
54236;BME280;40151;43.606;1.472;2023-04-26T04:13:06;99311.81;;;18.12;56.58
54236;BME280;40151;43.606;1.472;2023-04-26T04:15:32;99308.38;;;18.10;56.33
54236;BME280;40151;43.606;1.472;2023-04-26T04:17:57;99306.69;;;18.09;56.48
54236;BME280;40151;43.606;1.472;2023-04-26T04:20:23;99311.97;;;18.09;56.56
54236;BME280;40151;43.606;1.472;2023-04-26T04:22:48;99306.69;;;18.09;56.56
54236;BME280;40151;43.606;1.472;2023-04-26T04:25:13;99304.91;;;18.09;56.40
54236;BME280;40151;43.606;1.472;2023-04-26T04:27:40;99303.28;;;18.07;56.31
54236;BME280;40151;43.606;1.472;2023-04-26T04:30:09;99304.97;;;18.08;56.64
54236;BME280;40151;43.606;1.472;2023-04-26T04:32:36;99299.69;;;18.08;56.62
54236;BME280;40151;43.606;1.472;2023-04-26T04:35:04;99305.91;;;18.07;56.58
54236;BME280;40151;43.606;1.472;2023-04-26T04:37:29;99304.97;;;18.08;56.25
54236;BME280;40151;43.606;1.472;2023-04-26T04:39:57;99307.44;;;18.11;56.26
54236;BME280;40151;43.606;1.472;2023-04-26T04:42:22;99306.59;;;18.10;56.12
54236;BME280;40151;43.606;1.472;2023-04-26T04:44:47;99298.00;;;18.07;56.48
54236;BME280;40151;43.606;1.472;2023-04-26T04:47:14;99303.28;;;18.07;56.34
54236;BME280;40151;43.606;1.472;2023-04-26T04:49:40;99306.84;;;18.06;56.24
54236;BME280;40151;43.606;1.472;2023-04-26T04:52:05;99303.28;;;18.07;56.23
54236;BME280;40151;43.606;1.472;2023-04-26T04:54:31;99308.56;;;18.07;56.38
54236;BME280;40151;43.606;1.472;2023-04-26T04:56:57;99311.19;;;18.07;56.42
54236;BME280;40151;43.606;1.472;2023-04-26T04:59:23;99319.13;;;18.07;56.43
54236;BME280;40151;43.606;1.472;2023-04-26T05:01:49;99325.34;;;18.06;56.26
54236;BME280;40151;43.606;1.472;2023-04-26T05:04:14;99319.16;;;18.05;56.52
54236;BME280;40151;43.606;1.472;2023-04-26T05:06:40;99324.41;;;18.07;56.21
54236;BME280;40151;43.606;1.472;2023-04-26T05:09:06;99321.75;;;18.07;56.63
54236;BME280;40151;43.606;1.472;2023-04-26T05:11:32;99325.34;;;18.06;56.31
54236;BME280;40151;43.606;1.472;2023-04-26T05:13:57;99326.09;;;18.08;56.21
54236;BME280;40151;43.606;1.472;2023-04-26T05:16:23;99329.78;;;18.04;56.39
54236;BME280;40151;43.606;1.472;2023-04-26T05:18:48;99338.56;;;18.04;56.33
54236;BME280;40151;43.606;1.472;2023-04-26T05:21:13;99335.06;;;18.04;56.38
54236;BME280;40151;43.606;1.472;2023-04-26T05:23:39;99348.34;;;18.02;56.48
54236;BME280;40151;43.606;1.472;2023-04-26T05:26:05;99340.34;;;18.04;56.28
54236;BME280;40151;43.606;1.472;2023-04-26T05:28:32;99340.53;;;18.01;56.38
54236;BME280;40151;43.606;1.472;2023-04-26T05:30:58;99347.50;;;18.02;56.56
54236;BME280;40151;43.606;1.472;2023-04-26T05:33:24;99350.22;;;18.00;56.83
54236;BME280;40151;43.606;1.472;2023-04-26T05:35:50;99349.38;;;18.00;56.34
54236;BME280;40151;43.606;1.472;2023-04-26T05:38:17;99351.22;;;17.97;56.70
54236;BME280;40151;43.606;1.472;2023-04-26T05:40:42;99346.75;;;18.00;56.53
54236;BME280;40151;43.606;1.472;2023-04-26T05:43:07;99352.03;;;18.00;56.42
54236;BME280;40151;43.606;1.472;2023-04-26T05:45:33;99352.03;;;18.00;56.32
54236;BME280;40151;43.606;1.472;2023-04-26T05:47:58;99353.78;;;17.99;56.69
54236;BME280;40151;43.606;1.472;2023-04-26T05:50:23;99358.06;;;18.02;56.35
54236;BME280;40151;43.606;1.472;2023-04-26T05:52:49;99357.31;;;18.00;56.58
54236;BME280;40151;43.606;1.472;2023-04-26T05:55:14;99356.50;;;17.97;56.57
54236;BME280;40151;43.606;1.472;2023-04-26T05:57:40;99359.94;;;18.00;56.38
54236;BME280;40151;43.606;1.472;2023-04-26T06:00:06;99363.47;;;17.98;56.41
54236;BME280;40151;43.606;1.472;2023-04-26T06:02:34;99363.47;;;17.98;56.59
54236;BME280;40151;43.606;1.472;2023-04-26T06:04:59;99369.63;;;17.99;56.72
54236;BME280;40151;43.606;1.472;2023-04-26T06:07:24;99364.41;;;17.97;56.58
54236;BME280;40151;43.606;1.472;2023-04-26T06:09:50;99368.00;;;17.96;56.57
54236;BME280;40151;43.606;1.472;2023-04-26T06:12:15;99360.84;;;17.98;56.71
54236;BME280;40151;43.606;1.472;2023-04-26T06:14:41;99372.34;;;17.97;56.50
54236;BME280;40151;43.606;1.472;2023-04-26T06:17:06;99372.34;;;17.97;56.59
54236;BME280;40151;43.606;1.472;2023-04-26T06:19:32;99368.75;;;17.98;56.49
54236;BME280;40151;43.606;1.472;2023-04-26T06:21:57;99372.34;;;17.97;56.69
54236;BME280;40151;43.606;1.472;2023-04-26T06:24:23;99388.19;;;17.97;56.59
54236;BME280;40151;43.606;1.472;2023-04-26T06:26:49;99379.31;;;17.98;56.35
54236;BME280;40151;43.606;1.472;2023-04-26T06:29:15;99386.34;;;18.00;56.12
54236;BME280;40151;43.606;1.472;2023-04-26T06:31:41;99388.03;;;18.01;56.70
54236;BME280;40151;43.606;1.472;2023-04-26T06:34:06;99382.91;;;17.97;56.77
54236;BME280;40151;43.606;1.472;2023-04-26T06:36:31;99383.78;;;17.98;56.80
54236;BME280;40151;43.606;1.472;2023-04-26T06:38:57;99382.06;;;17.97;56.63
54236;BME280;40151;43.606;1.472;2023-04-26T06:41:23;99382.06;;;17.97;56.81
54236;BME280;40151;43.606;1.472;2023-04-26T06:43:48;99388.34;;;17.94;56.83
54236;BME280;40151;43.606;1.472;2023-04-26T06:46:13;99389.88;;;17.98;56.58
54236;BME280;40151;43.606;1.472;2023-04-26T06:48:39;99389.06;;;17.98;56.75
54236;BME280;40151;43.606;1.472;2023-04-26T06:51:08;99386.47;;;17.96;56.85
54236;BME280;40151;43.606;1.472;2023-04-26T06:53:34;99379.31;;;17.98;56.77
54236;BME280;40151;43.606;1.472;2023-04-26T06:55:59;99381.97;;;17.98;56.64
54236;BME280;40151;43.606;1.472;2023-04-26T06:58:25;99382.91;;;17.97;56.65
54236;BME280;40151;43.606;1.472;2023-04-26T07:00:50;99381.06;;;18.00;56.48
54236;BME280;40151;43.606;1.472;2023-04-26T07:03:16;99374.03;;;17.98;56.81
54236;BME280;40151;43.606;1.472;2023-04-26T07:05:41;99379.31;;;17.98;56.63
54236;BME280;40151;43.606;1.472;2023-04-26T07:08:07;99374.97;;;17.97;56.73
54236;BME280;40151;43.606;1.472;2023-04-26T07:10:32;99369.63;;;17.99;56.85
54236;BME280;40151;43.606;1.472;2023-04-26T07:12:57;99370.50;;;18.00;56.68
54236;BME280;40151;43.606;1.472;2023-04-26T07:15:23;99368.69;;;18.00;56.64
54236;BME280;40151;43.606;1.472;2023-04-26T07:17:48;99373.91;;;18.02;56.74
54236;BME280;40151;43.606;1.472;2023-04-26T07:20:14;99377.47;;;18.01;56.96
54236;BME280;40151;43.606;1.472;2023-04-26T07:22:44;99377.47;;;18.01;56.83
54236;BME280;40151;43.606;1.472;2023-04-26T07:25:09;99382.59;;;18.04;56.87
54236;BME280;40151;43.606;1.472;2023-04-26T07:27:35;99374.84;;;18.01;56.79
54236;BME280;40151;43.606;1.472;2023-04-26T07:30:00;99381.06;;;18.00;56.50
54236;BME280;40151;43.606;1.472;2023-04-26T07:32:25;99373.91;;;18.02;56.71
54236;BME280;40151;43.606;1.472;2023-04-26T07:34:51;99380.88;;;18.03;56.89
54236;BME280;40151;43.606;1.472;2023-04-26T07:37:16;99375.53;;;18.04;56.83
54236;BME280;40151;43.606;1.472;2023-04-26T07:39:43;99375.50;;;18.06;56.80
54236;BME280;40151;43.606;1.472;2023-04-26T07:42:08;99384.31;;;18.05;56.80
54236;BME280;40151;43.606;1.472;2023-04-26T07:44:33;99386.06;;;18.06;56.70
54236;BME280;40151;43.606;1.472;2023-04-26T07:46:59;99373.75;;;18.05;56.79
54236;BME280;40151;43.606;1.472;2023-04-26T07:49:24;99387.78;;;18.07;56.78
54236;BME280;40151;43.606;1.472;2023-04-26T07:51:50;99390.41;;;18.07;56.77
54236;BME280;40151;43.606;1.472;2023-04-26T07:54:16;99385.91;;;18.09;56.64
54236;BME280;40151;43.606;1.472;2023-04-26T07:56:41;99381.31;;;18.13;56.49
54236;BME280;40151;43.606;1.472;2023-04-26T07:59:07;99389.16;;;18.14;56.26
54236;BME280;40151;43.606;1.472;2023-04-26T08:01:32;99382.00;;;18.16;56.31
54236;BME280;40151;43.606;1.472;2023-04-26T08:03:58;99388.28;;;18.14;56.40
54236;BME280;40151;43.606;1.472;2023-04-26T08:06:23;99389.03;;;18.17;56.58
54236;BME280;40151;43.606;1.472;2023-04-26T08:08:49;99390.94;;;18.14;56.64
54236;BME280;40151;43.606;1.472;2023-04-26T08:11:15;99396.16;;;18.15;56.28
54236;BME280;40151;43.606;1.472;2023-04-26T08:13:41;99389.03;;;18.17;56.35
54236;BME280;40151;43.606;1.472;2023-04-26T08:16:08;99382.81;;;18.18;56.32
54236;BME280;40151;43.606;1.472;2023-04-26T08:18:33;99381.88;;;18.19;56.26
54236;BME280;40151;43.606;1.472;2023-04-26T08:20:59;99384.44;;;18.21;56.25
54236;BME280;40151;43.606;1.472;2023-04-26T08:23:25;99389.78;;;18.19;56.35
54236;BME280;40151;43.606;1.472;2023-04-26T08:25:50;99386.97;;;18.22;56.48
54236;BME280;40151;43.606;1.472;2023-04-26T08:28:16;99395.06;;;18.19;56.15
54236;BME280;40151;43.606;1.472;2023-04-26T08:30:41;99389.72;;;18.21;56.13
54236;BME280;40151;43.606;1.472;2023-04-26T08:33:08;99393.19;;;18.21;56.20
54236;BME280;40151;43.606;1.472;2023-04-26T08:35:33;99388.72;;;18.23;56.21
54236;BME280;40151;43.606;1.472;2023-04-26T08:37:59;99384.34;;;18.22;56.30
54236;BME280;40151;43.606;1.472;2023-04-26T08:40:25;99388.53;;;18.27;56.14
54236;BME280;40151;43.606;1.472;2023-04-26T08:42:51;99384.97;;;18.28;55.85
54236;BME280;40151;43.606;1.472;2023-04-26T08:45:17;99385.97;;;18.25;56.10
54236;BME280;40151;43.606;1.472;2023-04-26T08:47:46;99387.59;;;18.28;56.22
54236;BME280;40151;43.606;1.472;2023-04-26T08:50:13;99385.91;;;18.27;56.21
54236;BME280;40151;43.606;1.472;2023-04-26T08:52:40;99391.94;;;18.29;56.11
54236;BME280;40151;43.606;1.472;2023-04-26T08:55:07;99390.09;;;18.31;56.06
54236;BME280;40151;43.606;1.472;2023-04-26T08:57:34;99384.81;;;18.31;56.02
54236;BME280;40151;43.606;1.472;2023-04-26T09:00:04;99391.81;;;18.32;55.74
54236;BME280;40151;43.606;1.472;2023-04-26T09:02:30;99388.22;;;18.33;56.05
54236;BME280;40151;43.606;1.472;2023-04-26T09:04:56;99388.22;;;18.33;56.08
54236;BME280;40151;43.606;1.472;2023-04-26T09:09:57;99392.50;;;18.35;55.93
54236;BME280;40151;43.606;1.472;2023-04-26T09:12:23;99400.59;;;18.32;55.81
54236;BME280;40151;43.606;1.472;2023-04-26T09:14:49;99396.22;;;18.31;55.76
54236;BME280;40151;43.606;1.472;2023-04-26T09:17:27;99398.66;;;18.36;55.81
54236;BME280;40151;43.606;1.472;2023-04-26T09:19:53;99403.06;;;18.35;56.08
54236;BME280;40151;43.606;1.472;2023-04-26T09:22:35;99398.66;;;18.36;56.09
54236;BME280;40151;43.606;1.472;2023-04-26T09:25:04;99397.72;;;18.37;55.88
54236;BME280;40151;43.606;1.472;2023-04-26T09:27:41;99399.41;;;18.38;55.78
54236;BME280;40151;43.606;1.472;2023-04-26T09:30:15;99408.22;;;18.38;55.69
54236;BME280;40151;43.606;1.472;2023-04-26T09:33:01;99405.47;;;18.40;55.91
54236;BME280;40151;43.606;1.472;2023-04-26T09:35:38;99405.47;;;18.40;55.89
54236;BME280;40151;43.606;1.472;2023-04-26T09:38:06;99409.84;;;18.41;55.75
54236;BME280;40151;43.606;1.472;2023-04-26T09:40:46;99406.34;;;18.41;55.58
54236;BME280;40151;43.606;1.472;2023-04-26T09:43:14;99405.47;;;18.40;55.76
54236;BME280;40151;43.606;1.472;2023-04-26T09:45:50;99410.75;;;18.40;55.68
54236;BME280;40151;43.606;1.472;2023-04-26T09:48:19;99409.84;;;18.41;55.61
54236;BME280;40151;43.606;1.472;2023-04-26T09:50:53;99411.63;;;18.41;55.96
54236;BME280;40151;43.606;1.472;2023-04-26T09:53:26;99416.03;;;18.40;55.74
54236;BME280;40151;43.606;1.472;2023-04-26T09:55:56;99423.06;;;18.41;55.76
54236;BME280;40151;43.606;1.472;2023-04-26T09:58:22;99424.81;;;18.41;55.91
54236;BME280;40151;43.606;1.472;2023-04-26T10:00:51;99414.19;;;18.42;55.46
54236;BME280;40151;43.606;1.472;2023-04-26T10:03:18;99423.97;;;18.40;55.86
54236;BME280;40151;43.606;1.472;2023-04-26T10:05:47;99423.06;;;18.41;55.88
54236;BME280;40151;43.606;1.472;2023-04-26T10:08:12;99418.59;;;18.42;55.78
54236;BME280;40151;43.606;1.472;2023-04-26T10:10:38;99417.66;;;18.43;55.61
54236;BME280;40151;43.606;1.472;2023-04-26T10:13:05;99415.91;;;18.43;55.72
54236;BME280;40151;43.606;1.472;2023-04-26T10:15:31;99405.31;;;18.43;55.58
54236;BME280;40151;43.606;1.472;2023-04-26T10:17:57;99405.31;;;18.43;55.77
54236;BME280;40151;43.606;1.472;2023-04-26T10:20:26;99407.97;;;18.43;55.80
54236;BME280;40151;43.606;1.472;2023-04-26T10:22:55;99407.03;;;18.44;56.00
54236;BME280;40151;43.606;1.472;2023-04-26T10:25:35;99400.03;;;18.43;55.81
54236;BME280;40151;43.606;1.472;2023-04-26T10:28:01;99394.75;;;18.43;55.76
54236;BME280;40151;43.606;1.472;2023-04-26T10:30:28;99386.75;;;18.45;55.67
54236;BME280;40151;43.606;1.472;2023-04-26T10:35:31;99393.75;;;18.46;55.61
54236;BME280;40151;43.606;1.472;2023-04-26T10:40:38;99383.09;;;18.47;55.85
54236;BME280;40151;43.606;1.472;2023-04-26T10:45:32;99376.88;;;18.48;55.62
54236;BME280;40151;43.606;1.472;2023-04-26T10:48:18;99372.44;;;18.49;55.61
54236;BME280;40151;43.606;1.472;2023-04-26T10:56:32;99372.38;;;18.50;55.35
54236;BME280;40151;43.606;1.472;2023-04-26T10:59:13;99370.72;;;18.48;55.72
54236;BME280;40151;43.606;1.472;2023-04-26T11:01:40;99373.22;;;18.51;55.54
54236;BME280;40151;43.606;1.472;2023-04-26T11:04:10;99376.72;;;18.51;55.66
54236;BME280;40151;43.606;1.472;2023-04-26T11:09:36;99371.41;;;18.51;55.59
54236;BME280;40151;43.606;1.472;2023-04-26T11:12:03;99373.16;;;18.52;55.75
54236;BME280;40151;43.606;1.472;2023-04-26T11:14:29;99367.88;;;18.52;55.84
54236;BME280;40151;43.606;1.472;2023-04-26T11:16:55;99374.84;;;18.54;55.87
54236;BME280;40151;43.606;1.472;2023-04-26T11:19:21;99370.41;;;18.54;55.82
54236;BME280;40151;43.606;1.472;2023-04-26T11:21:47;99366.84;;;18.55;55.59
54236;BME280;40151;43.606;1.472;2023-04-26T11:24:15;99376.56;;;18.55;55.87
54236;BME280;40151;43.606;1.472;2023-04-26T11:26:40;99372.03;;;18.57;55.76
54236;BME280;40151;43.606;1.472;2023-04-26T11:29:06;99371.09;;;18.58;55.62
54236;BME280;40151;43.606;1.472;2023-04-26T11:31:33;99369.41;;;18.57;55.93
54236;BME280;40151;43.606;1.472;2023-04-26T11:34:05;99371.09;;;18.58;55.68
54236;BME280;40151;43.606;1.472;2023-04-26T11:36:30;99368.47;;;18.58;55.86
54236;BME280;40151;43.606;1.472;2023-04-26T11:38:57;99363.16;;;18.58;55.62
54236;BME280;40151;43.606;1.472;2023-04-26T11:41:22;99365.81;;;18.58;55.71
54236;BME280;40151;43.606;1.472;2023-04-26T11:43:48;99363.09;;;18.59;55.61
54236;BME280;40151;43.606;1.472;2023-04-26T11:46:14;99359.63;;;18.59;55.61
54236;BME280;40151;43.606;1.472;2023-04-26T11:48:41;99353.41;;;18.60;55.78
54236;BME280;40151;43.606;1.472;2023-04-26T11:51:07;99341.97;;;18.59;55.71
54236;BME280;40151;43.606;1.472;2023-04-26T11:56:04;99352.38;;;18.62;55.95
54236;BME280;40151;43.606;1.472;2023-04-26T11:58:29;99353.22;;;18.63;55.74
54236;BME280;40151;43.606;1.472;2023-04-26T12:00:56;99350.56;;;18.63;55.75
54236;BME280;40151;43.606;1.472;2023-04-26T12:03:22;99342.66;;;18.63;55.64
54236;BME280;40151;43.606;1.472;2023-04-26T12:05:54;99335.50;;;18.65;55.66
54236;BME280;40151;43.606;1.472;2023-04-26T12:08:23;99332.88;;;18.65;55.79
54236;BME280;40151;43.606;1.472;2023-04-26T12:10:49;99340.69;;;18.67;55.75
54236;BME280;40151;43.606;1.472;2023-04-26T12:13:14;99334.38;;;18.69;55.75
54236;BME280;40151;43.606;1.472;2023-04-26T12:15:40;99330.81;;;18.70;55.77
54236;BME280;40151;43.606;1.472;2023-04-26T12:18:08;99332.53;;;18.71;55.50
54236;BME280;40151;43.606;1.472;2023-04-26T12:20:36;99315.75;;;18.72;55.52
54236;BME280;40151;43.606;1.472;2023-04-26T12:23:03;99328.00;;;18.73;55.60
54236;BME280;40151;43.606;1.472;2023-04-26T12:25:30;99326.25;;;18.74;55.51
54236;BME280;40151;43.606;1.472;2023-04-26T12:27:56;99315.56;;;18.75;55.73
54236;BME280;40151;43.606;1.472;2023-04-26T12:30:21;99329.56;;;18.77;55.63
54236;BME280;40151;43.606;1.472;2023-04-26T12:32:47;99317.28;;;18.76;55.76
54236;BME280;40151;43.606;1.472;2023-04-26T12:35:12;99322.56;;;18.76;55.64
54236;BME280;40151;43.606;1.472;2023-04-26T12:37:38;99331.28;;;18.78;55.75
54236;BME280;40151;43.606;1.472;2023-04-26T12:40:04;99319.81;;;18.78;55.70
54236;BME280;40151;43.606;1.472;2023-04-26T12:42:31;99329.56;;;18.77;55.55
54236;BME280;40151;43.606;1.472;2023-04-26T12:44:57;99332.97;;;18.79;55.64
54236;BME280;40151;43.606;1.472;2023-04-26T12:47:22;99331.19;;;18.80;55.44
54236;BME280;40151;43.606;1.472;2023-04-26T12:49:47;99331.09;;;18.82;55.58
54236;BME280;40151;43.606;1.472;2023-04-26T12:52:13;99336.38;;;18.82;55.51
54236;BME280;40151;43.606;1.472;2023-04-26T12:54:38;99341.66;;;18.82;55.68
54236;BME280;40151;43.606;1.472;2023-04-26T12:57:04;99339.81;;;18.84;55.34
54236;BME280;40151;43.606;1.472;2023-04-26T12:59:30;99331.94;;;18.82;55.58
54236;BME280;40151;43.606;1.472;2023-04-26T13:01:55;99326.59;;;18.84;55.77
54236;BME280;40151;43.606;1.472;2023-04-26T13:04:21;99328.38;;;18.83;55.56
54236;BME280;40151;43.606;1.472;2023-04-26T13:06:46;99329.22;;;18.84;55.71
54236;BME280;40151;43.606;1.472;2023-04-26T13:09:12;99323.88;;;18.85;55.58
54236;BME280;40151;43.606;1.472;2023-04-26T13:11:38;99332.63;;;18.86;55.58
54236;BME280;40151;43.606;1.472;2023-04-26T13:14:04;99323.75;;;18.87;55.64
54236;BME280;40151;43.606;1.472;2023-04-26T13:16:31;99331.69;;;18.87;55.47